Time;durP1;ratioP1;P1;durP2;ratioP2;P2;SDS_P1;SDS_P2;PMS_P1;PMS_P2;Temp;Humidity;BMP_temperature;BMP_pressure;BME280_temperature;BME280_humidity;BME280_pressure;Samples;Min_cycle;Max_cycle;Signal;HPM_P1;HPM_P2
2023/12/31 00:00:56;;;;;;;6.55;3.45;;;;;;;5.77;100.00;100723.44;7397494;19;20018;-69
2023/12/31 00:03:25;;;;;;;10.57;3.50;;;;;;;5.72;100.00;100715.63;7396605;19;20014;-68
2023/12/31 00:05:53;;;;;;;9.40;4.00;;;;;;;5.66;100.00;100719.13;7395181;19;20007;-68
2023/12/31 00:08:24;;;;;;;6.95;3.22;;;;;;;5.61;100.00;100715.66;7394034;19;20028;-68
2023/12/31 00:11:00;;;;;;;11.07;3.95;;;;;;;5.56;100.00;100712.19;7396709;19;20480;-68
2023/12/31 00:13:29;;;;;;;10.45;3.35;;;;;;;5.47;100.00;100697.47;7396425;19;20014;-69
2023/12/31 00:15:57;;;;;;;10.45;3.45;;;;;;;5.44;100.00;100710.47;7395214;19;20014;-68
2023/12/31 00:18:26;;;;;;;7.43;4.03;;;;;;;5.39;100.00;100704.41;7396446;19;20477;-69
2023/12/31 00:20:54;;;;;;;12.82;4.50;;;;;;;5.33;100.00;100702.69;7401311;19;20003;-68
2023/12/31 00:23:25;;;;;;;12.15;4.85;;;;;;;5.28;100.00;100701.81;7400507;19;20488;-68
2023/12/31 00:25:54;;;;;;;12.77;5.10;;;;;;;5.23;100.00;100708.75;7397440;19;20023;-68
2023/12/31 00:28:29;;;;;;;7.53;3.80;;;;;;;5.18;100.00;100707.88;7396109;19;20484;-68
2023/12/31 00:30:57;;;;;;;10.43;4.05;;;;;;;5.14;100.00;100703.53;7394904;19;20086;-68
2023/12/31 00:33:25;;;;;;;10.52;4.47;;;;;;;5.09;100.00;100695.72;7394688;19;20014;-69
2023/12/31 00:35:54;;;;;;;13.95;3.88;;;;;;;5.05;100.00;100704.41;7394139;19;20070;-68
2023/12/31 00:38:25;;;;;;;10.98;4.50;;;;;;;5.01;100.00;100692.28;7396361;19;20021;-69
2023/12/31 00:40:54;;;;;;;10.00;6.85;;;;;;;4.97;100.00;100695.75;7394469;19;20020;-68
2023/12/31 00:43:23;;;;;;;13.45;6.70;;;;;;;4.93;100.00;100686.19;7394262;19;20027;-68
2023/12/31 00:45:51;;;;;;;10.98;7.00;;;;;;;4.88;100.00;100684.47;7396180;19;20035;-69
2023/12/31 00:48:20;;;;;;;10.65;5.88;;;;;;;4.84;100.00;100684.44;7395531;19;20086;-68
2023/12/31 00:50:48;;;;;;;8.43;5.05;;;;;;;4.80;100.00;100688.81;7394205;19;20014;-68
2023/12/31 00:53:17;;;;;;;10.00;5.30;;;;;;;4.77;100.00;100688.78;7395286;19;20006;-68
2023/12/31 00:55:48;;;;;;;8.25;4.35;;;;;;;4.74;100.00;100686.19;7395193;19;20054;-66
2023/12/31 00:58:18;;;;;;;10.98;4.50;;;;;;;4.70;100.00;100690.53;7393836;19;20362;-66
2023/12/31 01:00:46;;;;;;;9.70;4.03;;;;;;;4.67;100.00;100687.91;7393614;19;20018;-66
2023/12/31 01:03:15;;;;;;;8.40;3.55;;;;;;;4.63;100.00;100686.16;7395027;19;20021;-66
2023/12/31 01:05:43;;;;;;;13.52;4.22;;;;;;;4.60;100.00;100686.19;7393385;19;20019;-66
2023/12/31 01:08:12;;;;;;;8.80;4.28;;;;;;;4.57;100.00;100692.25;7393269;19;20015;-66
2023/12/31 01:10:40;;;;;;;8.18;4.72;;;;;;;4.54;100.00;100689.63;7395390;19;20078;-66
2023/12/31 01:13:11;;;;;;;7.78;3.80;;;;;;;4.52;100.00;100686.13;7394486;19;20525;-66
2023/12/31 01:15:40;;;;;;;6.93;3.67;;;;;;;4.50;100.00;100687.00;7393682;19;20098;-66
2023/12/31 01:18:10;;;;;;;8.75;3.72;;;;;;;4.47;100.00;100681.81;7395158;19;20070;-67
2023/12/31 01:20:38;;;;;;;7.28;4.03;;;;;;;4.46;100.00;100675.75;7396887;19;20029;-66
2023/12/31 01:23:07;;;;;;;10.23;4.00;;;;;;;4.45;100.00;100678.31;7401955;19;20086;-67
2023/12/31 01:25:35;;;;;;;7.70;3.90;;;;;;;4.42;100.00;100676.59;7399825;19;20014;-67
2023/12/31 01:28:04;;;;;;;9.32;4.05;;;;;;;4.39;100.00;100674.84;7402546;19;20033;-67
2023/12/31 01:30:35;;;;;;;11.63;4.50;;;;;;;4.37;100.00;100676.59;7402537;19;20039;-67
2023/12/31 01:33:03;;;;;;;7.15;3.92;;;;;;;4.34;100.00;100673.97;7402163;19;20082;-67
2023/12/31 01:35:32;;;;;;;9.52;4.68;;;;;;;4.30;100.00;100672.25;7398761;19;20074;-67
2023/12/31 01:38:00;;;;;;;9.05;4.10;;;;;;;4.30;100.00;100669.66;7399801;19;20028;-66
2023/12/31 01:40:29;;;;;;;10.70;4.50;;;;;;;4.28;100.00;100668.75;7402021;19;20010;-72
2023/12/31 01:42:57;;;;;;;9.43;4.10;;;;;;;4.24;100.00;100661.84;7399008;19;20027;-66
2023/12/31 01:45:26;;;;;;;9.88;3.90;;;;;;;4.23;100.00;100665.28;7401652;19;20493;-66
2023/12/31 01:47:57;;;;;;;9.82;4.05;;;;;;;4.19;100.00;100664.41;7401420;19;20030;-66
2023/12/31 01:50:27;;;;;;;10.15;4.28;;;;;;;4.17;100.00;100654.88;7401551;19;20019;-66
2023/12/31 01:52:56;;;;;;;11.80;4.10;;;;;;;4.15;100.00;100656.63;7401422;19;20083;-67
2023/12/31 01:55:25;;;;;;;10.10;4.38;;;;;;;4.12;100.00;100657.47;7401417;19;20011;-66
2023/12/31 01:57:53;;;;;;;9.60;4.68;;;;;;;4.10;100.00;100658.34;7398583;19;20368;-66
2023/12/31 02:00:22;;;;;;;8.20;4.25;;;;;;;4.06;100.00;100653.13;7401142;19;20081;-66
2023/12/31 02:02:53;;;;;;;8.82;4.18;;;;;;;4.03;100.00;100644.44;7400699;19;20481;-69
2023/12/31 02:05:24;;;;;;;12.18;4.28;;;;;;;4.01;100.00;100647.03;7401368;19;20026;-71
2023/12/31 02:07:53;;;;;;;11.25;4.45;;;;;;;3.99;100.00;100640.97;7398317;19;20016;-67
2023/12/31 02:10:21;;;;;;;8.38;4.25;;;;;;;3.96;100.00;100638.38;7398552;19;20098;-67
2023/12/31 02:12:50;;;;;;;9.02;4.43;;;;;;;3.94;100.00;100631.44;7401351;19;20086;-67
2023/12/31 02:15:31;;;;;;;11.40;4.53;;;;;;;3.91;100.00;100634.91;7400801;19;20379;-67
2023/12/31 02:18:01;;;;;;;11.38;4.93;;;;;;;3.89;100.00;100628.81;7398568;19;20010;-67
2023/12/31 02:20:32;;;;;;;10.02;4.85;;;;;;;3.86;100.00;100632.28;7400339;19;20502;-68
2023/12/31 02:23:01;;;;;;;9.98;4.50;;;;;;;3.84;100.00;100626.22;7400522;19;20035;-66
2023/12/31 02:25:31;;;;;;;10.20;4.65;;;;;;;3.83;100.00;100623.59;7400622;19;20006;-67
2023/12/31 02:28:02;;;;;;;8.38;5.03;;;;;;;3.79;100.00;100614.97;7397593;19;20548;-67
2023/12/31 02:30:31;;;;;;;8.35;4.25;;;;;;;3.77;100.00;100615.78;7397570;19;20007;-67
2023/12/31 02:32:59;;;;;;;10.27;4.22;;;;;;;3.75;100.00;100615.78;7397394;19;20024;-68
2023/12/31 02:35:28;;;;;;;8.57;3.97;;;;;;;3.73;100.00;100612.34;7397439;19;20098;-67
2023/12/31 02:37:56;;;;;;;11.70;4.15;;;;;;;3.72;100.00;100613.19;7398102;19;20010;-67
2023/12/31 02:40:25;;;;;;;9.77;4.90;;;;;;;3.71;100.00;100614.03;7399811;19;20014;-68
2023/12/31 02:42:53;;;;;;;9.18;4.28;;;;;;;3.71;100.00;100606.25;7399629;19;20015;-67
2023/12/31 02:45:24;;;;;;;8.57;4.55;;;;;;;3.69;100.00;100603.66;7399959;19;20093;-67
2023/12/31 02:47:53;;;;;;;8.88;4.35;;;;;;;3.69;100.00;100606.25;7400182;19;20007;-67
2023/12/31 02:50:21;;;;;;;10.73;3.83;;;;;;;3.67;100.00;100597.59;7399457;19;20007;-67
2023/12/31 02:52:50;;;;;;;7.72;4.07;;;;;;;3.67;100.00;100589.81;7396976;19;20029;-67
2023/12/31 02:55:18;;;;;;;9.73;3.80;;;;;;;3.66;100.00;100587.22;7399668;19;20041;-67
2023/12/31 02:57:47;;;;;;;7.90;4.25;;;;;;;3.67;100.00;100576.84;7397761;19;20010;-66
2023/12/31 03:00:16;;;;;;;8.32;3.90;;;;;;;3.67;100.00;100576.84;7399138;19;20006;-66
2023/12/31 03:02:47;;;;;;;8.68;3.45;;;;;;;3.68;100.00;100567.34;7398806;19;20074;-65
2023/12/31 03:05:16;;;;;;;6.80;3.63;;;;;;;3.66;100.00;100564.72;7399287;19;20335;-68
2023/12/31 03:07:45;;;;;;;10.32;4.03;;;;;;;3.68;100.00;100570.78;7398924;19;20485;-67
2023/12/31 03:10:13;;;;;;;8.88;3.20;;;;;;;3.69;100.00;100569.94;7396523;19;20013;-67
2023/12/31 03:12:42;;;;;;;8.68;3.80;;;;;;;3.69;100.00;100564.75;7398491;19;20014;-66
2023/12/31 03:15:12;;;;;;;6.13;3.55;;;;;;;3.68;100.00;100563.00;7398633;19;20019;-67
2023/12/31 03:17:40;;;;;;;10.93;3.97;;;;;;;3.69;100.00;100558.66;7396594;19;20021;-67
2023/12/31 03:20:12;;;;;;;7.13;3.75;;;;;;;3.69;100.00;100564.75;7398915;19;20002;-67
2023/12/31 03:22:41;;;;;;;5.60;3.42;;;;;;;3.68;100.00;100556.97;7398181;19;20013;-67
2023/12/31 03:25:10;;;;;;;6.68;3.05;;;;;;;3.67;100.00;100556.06;7398221;19;20014;-67
2023/12/31 03:27:45;;;;;;;7.97;3.10;;;;;;;3.66;100.00;100561.28;7398531;19;20020;-67
2023/12/31 03:30:14;;;;;;;8.02;3.35;;;;;;;3.65;100.00;100559.53;7398991;19;20040;-67
2023/12/31 03:32:43;;;;;;;8.80;3.28;;;;;;;3.61;100.00;100556.06;7398312;19;20029;-68
2023/12/31 03:35:14;;;;;;;7.18;3.30;;;;;;;3.60;100.00;100551.72;7397245;19;20073;-68
2023/12/31 03:37:47;;;;;;;11.00;3.80;;;;;;;3.54;100.00;100543.94;7396516;19;20379;-68
2023/12/31 03:40:16;;;;;;;6.28;3.20;;;;;;;3.56;100.00;100539.59;7396620;19;20041;-68
2023/12/31 03:42:45;;;;;;;5.10;3.22;;;;;;;3.54;100.00;100541.34;7396945;19;20006;-68
2023/12/31 03:45:13;;;;;;;11.60;3.47;;;;;;;3.53;100.00;100547.38;7397500;19;20014;-67
2023/12/31 03:47:42;;;;;;;7.45;3.67;;;;;;;3.50;100.00;100534.38;7397940;19;20010;-68
2023/12/31 03:50:11;;;;;;;7.38;4.10;;;;;;;3.48;100.00;100531.78;7397818;19;20018;-68
2023/12/31 03:52:42;;;;;;;9.75;3.95;;;;;;;3.46;100.00;100530.91;7395705;19;20025;-67
2023/12/31 03:55:11;;;;;;;9.15;4.75;;;;;;;3.45;100.00;100526.63;7396250;19;20041;-67
2023/12/31 03:57:40;;;;;;;10.38;4.13;;;;;;;3.42;100.00;100530.06;7396525;19;20014;-68
2023/12/31 04:00:17;;;;;;;7.32;4.05;;;;;;;3.41;100.00;100528.31;7395450;19;20074;-67
2023/12/31 04:02:46;;;;;;;9.38;4.20;;;;;;;3.40;100.00;100524.00;7397850;19;20019;-68
2023/12/31 04:05:14;;;;;;;10.07;4.00;;;;;;;3.39;100.00;100522.25;7397097;19;20031;-68
2023/12/31 04:07:45;;;;;;;10.13;3.78;;;;;;;3.41;100.00;100520.53;7397135;19;20022;-68
2023/12/31 04:10:14;;;;;;;8.10;3.83;;;;;;;3.43;100.00;100520.53;7397619;19;20018;-68
2023/12/31 04:12:42;;;;;;;4.30;3.55;;;;;;;3.45;100.00;100512.75;7396309;19;20019;-68
2023/12/31 04:15:11;;;;;;;11.05;3.60;;;;;;;3.46;100.00;100504.13;7396970;19;20031;-68
2023/12/31 04:17:39;;;;;;;10.88;3.85;;;;;;;3.48;100.00;100505.00;7395666;19;20010;-68
2023/12/31 04:20:09;;;;;;;12.05;4.10;;;;;;;3.50;100.00;100501.56;7396762;19;20031;-68
2023/12/31 04:22:38;;;;;;;7.40;4.03;;;;;;;3.51;100.00;100486.84;7396610;19;20035;-68
2023/12/31 04:25:10;;;;;;;7.57;3.63;;;;;;;3.51;100.00;100487.69;7396743;19;20016;-68
2023/12/31 04:27:40;;;;;;;8.27;3.85;;;;;;;3.54;100.00;100497.25;7396243;19;20013;-68
2023/12/31 04:30:09;;;;;;;8.93;3.83;;;;;;;3.54;100.00;100492.06;7397385;19;20010;-68
2023/12/31 04:32:38;;;;;;;5.15;3.15;;;;;;;3.55;100.00;100480.78;7394605;19;20014;-67
2023/12/31 04:35:07;;;;;;;7.00;4.07;;;;;;;3.55;100.00;100480.78;7397669;19;20032;-68
2023/12/31 04:37:36;;;;;;;9.27;3.65;;;;;;;3.54;100.00;100466.97;7400284;19;20014;-68
2023/12/31 04:40:05;;;;;;;4.10;3.05;;;;;;;3.53;100.00;100466.97;7396218;19;20028;-68
2023/12/31 04:42:36;;;;;;;5.57;3.22;;;;;;;3.54;100.00;100466.97;7395787;19;20033;-69
2023/12/31 04:45:07;;;;;;;8.48;3.95;;;;;;;3.55;100.00;100462.63;7396635;19;20027;-68
2023/12/31 04:47:37;;;;;;;7.70;3.35;;;;;;;3.55;100.00;100455.75;7393884;19;20354;-68
2023/12/31 04:50:07;;;;;;;8.88;3.45;;;;;;;3.56;100.00;100454.00;7395935;19;20027;-68
2023/12/31 04:52:35;;;;;;;7.45;3.38;;;;;;;3.57;100.00;100460.94;7395843;19;20014;-68
2023/12/31 04:55:03;;;;;;;8.10;3.67;;;;;;;3.57;100.00;100445.34;7393326;19;20024;-69
2023/12/31 04:57:32;;;;;;;10.73;3.75;;;;;;;3.59;100.00;100451.44;7395090;19;20023;-68
2023/12/31 05:00:03;;;;;;;4.88;2.95;;;;;;;3.61;100.00;100441.91;7393629;19;20367;-68
2023/12/31 05:02:32;;;;;;;8.75;3.30;;;;;;;3.63;100.00;100444.50;7395730;19;20025;-69
2023/12/31 05:05:01;;;;;;;5.47;2.80;;;;;;;3.66;100.00;100442.78;7393719;19;20028;-68
2023/12/31 05:07:30;;;;;;;6.70;2.90;;;;;;;3.71;100.00;100435.00;7395018;19;20483;-68
2023/12/31 05:09:58;;;;;;;7.65;3.03;;;;;;;3.76;100.00;100435.88;7395434;19;20010;-68
2023/12/31 05:12:27;;;;;;;6.53;2.72;;;;;;;3.80;100.00;100429.81;7394946;19;20074;-69
2023/12/31 05:14:55;;;;;;;10.60;3.08;;;;;;;3.86;100.00;100428.97;7393539;19;20022;-69
2023/12/31 05:17:26;;;;;;;6.28;2.78;;;;;;;3.90;100.00;100422.91;7394727;19;20019;-69
2023/12/31 05:19:55;;;;;;;6.60;3.10;;;;;;;3.95;100.00;100418.59;7393595;19;20022;-69
2023/12/31 05:22:23;;;;;;;9.95;2.90;;;;;;;4.00;100.00;100413.41;7395020;19;20027;-69
2023/12/31 05:24:52;;;;;;;3.22;2.35;;;;;;;4.04;100.00;100408.22;7392790;19;20033;-68
2023/12/31 05:27:20;;;;;;;8.57;2.75;;;;;;;4.09;100.00;100397.81;7393116;19;20022;-68
2023/12/31 05:29:49;;;;;;;10.43;2.50;;;;;;;4.14;100.00;100397.81;7394471;19;20006;-69
2023/12/31 05:32:17;;;;;;;5.47;2.47;;;;;;;4.17;100.00;100398.69;7392902;19;20027;-69
2023/12/31 05:34:48;;;;;;;6.70;2.65;;;;;;;4.22;100.00;100393.47;7392487;19;20424;-68
2023/12/31 05:37:17;;;;;;;5.03;2.63;;;;;;;4.28;100.00;100397.81;7394225;19;20388;-68
2023/12/31 05:39:45;;;;;;;6.85;2.50;;;;;;;4.31;100.00;100393.47;7394453;19;20007;-68
2023/12/31 05:42:14;;;;;;;4.32;1.98;;;;;;;4.36;100.00;100386.53;7394105;19;20494;-68
2023/12/31 05:44:42;;;;;;;5.93;2.08;;;;;;;4.39;100.00;100381.31;7392663;19;20014;-68
2023/12/31 05:47:11;;;;;;;5.82;2.85;;;;;;;4.43;100.00;100384.78;7394218;19;20019;-68
2023/12/31 05:49:39;;;;;;;16.27;7.95;;;;;;;4.48;100.00;100382.19;7393834;19;20015;-68
2023/12/31 05:52:11;;;;;;;4.45;2.50;;;;;;;4.53;100.00;100380.44;7394246;19;20028;-68
2023/12/31 05:54:40;;;;;;;5.85;1.95;;;;;;;4.57;100.00;100384.75;7392128;19;20010;-69
2023/12/31 05:57:09;;;;;;;7.80;2.10;;;;;;;4.61;100.00;100375.22;7393955;19;20041;-69
2023/12/31 05:59:37;;;;;;;4.50;2.40;;;;;;;4.64;100.00;100370.88;7393920;19;20031;-68
2023/12/31 06:02:07;;;;;;;3.60;1.88;;;;;;;4.68;100.00;100377.78;7393939;19;20014;-69
2023/12/31 06:04:35;;;;;;;2.42;2.03;;;;;;;4.72;100.00;100374.28;7392052;19;20022;-67
2023/12/31 06:07:04;;;;;;;6.75;1.98;;;;;;;4.76;100.00;100366.50;7397173;19;20019;-67
2023/12/31 06:09:35;;;;;;;3.25;2.17;;;;;;;4.79;100.00;100371.69;7400623;19;20006;-68
2023/12/31 06:12:03;;;;;;;4.38;1.88;;;;;;;4.81;100.00;100362.16;7398055;19;20480;-68
2023/12/31 06:14:32;;;;;;;4.25;2.15;;;;;;;4.84;100.00;100367.31;7398839;19;20021;-68
2023/12/31 06:17:00;;;;;;;7.82;2.67;;;;;;;4.85;100.00;100362.13;7397993;19;20011;-68
2023/12/31 06:19:29;;;;;;;3.97;2.15;;;;;;;4.88;100.00;100364.72;7398396;19;20015;-68
2023/12/31 06:21:57;;;;;;;5.25;2.40;;;;;;;4.89;100.00;100366.44;7400878;19;20010;-68
2023/12/31 06:24:26;;;;;;;4.90;2.42;;;;;;;4.93;100.00;100367.31;7397757;19;20022;-68
2023/12/31 06:26:57;;;;;;;3.08;2.08;;;;;;;4.95;100.00;100362.09;7399920;19;20343;-68
2023/12/31 06:29:32;;;;;;;4.72;2.20;;;;;;;4.96;100.00;100359.47;7397536;19;20481;-68
2023/12/31 06:32:00;;;;;;;4.13;2.13;;;;;;;4.98;100.00;100356.84;7399799;19;20497;-68
2023/12/31 06:34:28;;;;;;;6.05;2.45;;;;;;;4.99;100.00;100362.06;7399072;19;20099;-68
2023/12/31 06:36:57;;;;;;;2.70;1.70;;;;;;;5.01;100.00;100355.13;7402901;19;20480;-68
2023/12/31 06:39:25;;;;;;;3.80;2.50;;;;;;;5.03;100.00;100357.69;7398274;19;20010;-68
2023/12/31 06:41:58;;;;;;;4.05;1.77;;;;;;;5.05;100.00;100364.66;7400341;19;20477;-68
2023/12/31 06:44:26;;;;;;;5.88;3.53;;;;;;;5.06;100.00;100360.31;7397931;19;20027;-68
2023/12/31 06:46:55;;;;;;;9.95;4.30;;;;;;;5.06;100.00;100355.94;7399843;19;20422;-68
2023/12/31 06:49:23;;;;;;;9.70;3.65;;;;;;;5.09;100.00;100355.06;7397659;19;20039;-67
2023/12/31 06:51:52;;;;;;;7.32;2.70;;;;;;;5.10;100.00;100353.34;7399793;19;20019;-68
2023/12/31 06:54:20;;;;;;;4.53;2.50;;;;;;;5.10;100.00;100354.19;7397742;19;20384;-67
2023/12/31 06:56:49;;;;;;;4.68;1.77;;;;;;;5.12;100.00;100349.88;7397319;19;20031;-68
2023/12/31 06:59:20;;;;;;;5.10;2.22;;;;;;;5.13;100.00;100351.59;7397684;19;20086;-68
2023/12/31 07:01:48;;;;;;;4.25;1.70;;;;;;;5.14;100.00;100352.44;7397773;19;20031;-69
2023/12/31 07:04:17;;;;;;;3.45;1.88;;;;;;;5.15;100.00;100354.19;7396956;19;20014;-69
2023/12/31 07:06:45;;;;;;;4.93;1.88;;;;;;;5.16;100.00;100350.72;7399079;19;20019;-68
2023/12/31 07:09:14;;;;;;;3.15;1.67;;;;;;;5.16;100.00;100345.53;7398942;19;20006;-69
2023/12/31 07:11:42;;;;;;;2.78;1.75;;;;;;;5.17;100.00;100352.44;7399709;19;20025;-68
2023/12/31 07:14:11;;;;;;;3.33;1.95;;;;;;;5.17;100.00;100347.25;7397573;19;20031;-69
2023/12/31 07:16:42;;;;;;;4.68;2.05;;;;;;;5.20;100.00;100344.63;7396453;19;20548;-69
2023/12/31 07:19:10;;;;;;;3.78;1.92;;;;;;;5.20;100.00;100335.06;7394729;19;20498;-68
2023/12/31 07:21:39;;;;;;;2.38;1.83;;;;;;;5.21;100.00;100329.00;7398852;19;20028;-68
2023/12/31 07:24:07;;;;;;;5.43;1.92;;;;;;;5.22;100.00;100332.47;7397358;19;20031;-69
2023/12/31 07:26:36;;;;;;;3.70;1.90;;;;;;;5.24;100.00;100327.25;7398290;19;20078;-68
2023/12/31 07:29:05;;;;;;;4.40;1.90;;;;;;;5.24;100.00;100322.91;7398352;19;20018;-68
2023/12/31 07:31:35;;;;;;;4.38;1.88;;;;;;;5.26;100.00;100325.50;7398352;19;20032;-69
2023/12/31 07:34:06;;;;;;;5.53;2.38;;;;;;;5.26;100.00;100321.16;7397226;19;20018;-68
2023/12/31 07:36:34;;;;;;;7.18;2.10;;;;;;;5.27;100.00;100317.72;7396315;19;20356;-68
2023/12/31 07:39:03;;;;;;;2.97;1.70;;;;;;;5.29;100.00;100312.47;7396847;19;20018;-68
2023/12/31 07:41:32;;;;;;;2.85;1.90;;;;;;;5.29;100.00;100315.94;7397988;19;20484;-67
2023/12/31 07:44:00;;;;;;;6.85;3.67;;;;;;;5.31;100.00;100319.41;7396972;19;20023;-68
2023/12/31 07:46:29;;;;;;;4.95;1.90;;;;;;;5.31;100.00;100319.41;7397804;19;20418;-69
2023/12/31 07:48:57;;;;;;;4.47;1.85;;;;;;;5.32;100.00;100310.72;7397822;19;20031;-68
2023/12/31 07:51:28;;;;;;;5.32;1.85;;;;;;;5.34;100.00;100315.91;7397854;19;20014;-68
2023/12/31 07:53:57;;;;;;;2.75;1.95;;;;;;;5.36;100.00;100315.03;7396739;19;20031;-69
2023/12/31 07:56:25;;;;;;;3.15;1.90;;;;;;;5.38;100.00;100309.81;7397828;19;20015;-68
2023/12/31 07:58:54;;;;;;;4.95;2.03;;;;;;;5.40;100.00;100315.88;7396152;19;20010;-68
2023/12/31 08:01:23;;;;;;;3.25;1.90;;;;;;;5.43;100.00;100315.00;7397487;19;20015;-68
2023/12/31 08:03:52;;;;;;;4.35;2.50;;;;;;;5.44;100.00;100317.56;7396235;19;20069;-68
2023/12/31 08:06:21;;;;;;;4.13;2.00;;;;;;;5.47;100.00;100308.88;7396931;19;20499;-68
2023/12/31 08:08:52;;;;;;;3.97;2.10;;;;;;;5.50;100.00;100314.94;7397121;19;20010;-68
2023/12/31 08:11:21;;;;;;;3.80;2.08;;;;;;;5.53;100.00;100312.31;7396599;19;20023;-70
2023/12/31 08:13:51;;;;;;;4.38;2.15;;;;;;;5.54;100.00;100308.81;7395642;19;20476;-68
2023/12/31 08:16:20;;;;;;;5.93;2.17;;;;;;;5.59;100.00;100310.53;7397372;19;20023;-68
2023/12/31 08:18:48;;;;;;;5.43;2.47;;;;;;;5.60;100.00;100301.81;7395613;19;20021;-68
2023/12/31 08:21:17;;;;;;;6.10;3.20;;;;;;;5.63;100.00;100301.81;7395058;19;20427;-68
2023/12/31 08:23:45;;;;;;;7.32;3.25;;;;;;;5.63;100.00;100294.88;7396050;19;20017;-68
2023/12/31 08:26:16;;;;;;;6.55;3.20;;;;;;;5.63;100.00;100292.25;7396521;19;20007;-68
2023/12/31 08:28:45;;;;;;;5.47;3.20;;;;;;;5.67;100.00;100296.59;7396837;19;20379;-69
2023/12/31 08:31:15;;;;;;;6.70;3.95;;;;;;;5.69;100.00;100302.63;7396197;19;20027;-68
2023/12/31 08:33:43;;;;;;;5.60;3.10;;;;;;;5.70;98.65;100299.16;7395712;19;20031;-69
2023/12/31 08:36:12;;;;;;;7.15;3.72;;;;;;;5.74;99.20;100293.91;7394921;19;20022;-68
2023/12/31 08:38:41;;;;;;;6.03;3.45;;;;;;;5.77;99.12;100291.28;7395796;19;20015;-68
2023/12/31 08:41:09;;;;;;;5.65;3.30;;;;;;;5.77;99.98;100286.94;7396214;19;20010;-68
2023/12/31 08:43:40;;;;;;;5.22;3.33;;;;;;;5.80;99.60;100286.03;7394391;19;20022;-68
2023/12/31 08:46:10;;;;;;;6.43;3.22;;;;;;;5.80;98.57;100293.84;7398592;19;20027;-67
2023/12/31 08:48:38;;;;;;;5.72;3.22;;;;;;;5.80;98.61;100288.63;7395109;19;20029;-67
2023/12/31 08:51:07;;;;;;;5.28;3.08;;;;;;;5.80;98.75;100283.44;7396014;19;20010;-67
2023/12/31 08:53:36;;;;;;;4.53;3.00;;;;;;;5.82;98.75;100286.91;7394952;19;20374;-69
2023/12/31 08:56:04;;;;;;;6.05;3.00;;;;;;;5.81;98.71;100287.75;7395692;19;20013;-68
2023/12/31 08:58:33;;;;;;;7.43;2.78;;;;;;;5.82;98.83;100284.28;7395427;19;20074;-68
2023/12/31 09:01:04;;;;;;;5.43;3.10;;;;;;;5.83;99.34;100280.81;7395450;19;20019;-69
2023/12/31 09:03:33;;;;;;;6.90;3.33;;;;;;;5.83;97.76;100273.84;7393433;19;20015;-69
2023/12/31 09:06:01;;;;;;;6.03;3.70;;;;;;;5.86;98.15;100267.75;7394668;19;20077;-68
2023/12/31 09:08:30;;;;;;;5.85;3.80;;;;;;;5.85;97.23;100260.81;7394863;19;20019;-68
2023/12/31 09:10:58;;;;;;;6.78;3.72;;;;;;;5.88;98.75;100271.22;7393383;19;20015;-67
2023/12/31 09:13:27;;;;;;;4.63;3.35;;;;;;;5.90;97.94;100285.06;7394563;19;20028;-69
2023/12/31 09:15:55;;;;;;;5.10;2.88;;;;;;;5.92;97.88;100283.31;7395850;19;20022;-68
2023/12/31 09:18:28;;;;;;;8.45;3.70;;;;;;;5.96;98.96;100291.97;7393582;19;20010;-68
2023/12/31 09:20:56;;;;;;;6.88;4.70;;;;;;;5.99;99.52;100286.75;7394225;19;20029;-68
2023/12/31 09:23:25;;;;;;;18.95;10.60;;;;;;;6.02;98.69;100279.78;7394358;19;20019;-68
2023/12/31 09:25:54;;;;;;;7.82;5.28;;;;;;;6.04;98.83;100274.56;7393285;19;20035;-68
2023/12/31 09:28:23;;;;;;;9.93;5.22;;;;;;;6.09;99.93;100282.31;7393409;19;20035;-67
2023/12/31 09:30:51;;;;;;;9.27;4.90;;;;;;;6.12;98.38;100266.66;7394754;19;20035;-68
2023/12/31 09:33:20;;;;;;;6.70;4.20;;;;;;;6.14;97.75;100257.06;7392772;19;20019;-68
2023/12/31 09:35:51;;;;;;;6.60;4.25;;;;;;;6.18;98.24;100256.19;7393873;19;20011;-68
2023/12/31 09:38:19;;;;;;;5.82;3.53;;;;;;;6.21;98.48;100257.91;7394798;19;20014;-68
2023/12/31 09:40:48;;;;;;;5.93;4.15;;;;;;;6.22;96.44;100241.34;7394674;19;20049;-68
2023/12/31 09:43:22;;;;;;;7.57;3.53;;;;;;;6.26;97.07;100235.25;7401053;19;20069;-68
2023/12/31 09:45:51;;;;;;;;;;;;;;;6.29;94.05;100233.47;7402492;19;20015;-68
2023/12/31 09:48:19;;;;;;;5.28;3.15;;;;;;;6.33;97.16;100227.34;7399116;19;19921;-68
2023/12/31 09:50:51;;;;;;;5.28;3.20;;;;;;;6.38;97.81;100229.00;7399058;19;20018;-68
2023/12/31 09:53:22;;;;;;;8.60;4.32;;;;;;;6.42;97.31;100222.88;7401288;19;20035;-68
2023/12/31 09:55:54;;;;;;;5.85;3.10;;;;;;;6.47;98.16;100206.31;7401313;19;20024;-68
2023/12/31 09:58:25;;;;;;;4.93;2.95;;;;;;;6.52;97.83;100203.63;7399273;19;20015;-67
2023/12/31 10:01:01;;;;;;;5.90;2.80;;;;;;;6.59;98.06;100201.81;7401902;19;20011;-68
2023/12/31 10:03:30;;;;;;;5.90;3.20;;;;;;;6.64;97.10;100193.03;7400770;19;20033;-68
2023/12/31 10:06:02;;;;;;;6.00;2.95;;;;;;;6.71;97.16;100187.72;7401255;19;20014;-68
2023/12/31 10:08:31;;;;;;;4.57;3.10;;;;;;;6.76;98.03;100185.91;7401586;19;20014;-68
2023/12/31 10:11:02;;;;;;;5.22;3.15;;;;;;;6.81;97.72;100166.72;7400845;19;20023;-68
2023/12/31 10:13:31;;;;;;;6.18;3.63;;;;;;;6.86;97.31;100171.84;7400254;19;20019;-68
2023/12/31 10:16:00;;;;;;;4.28;2.50;;;;;;;6.91;96.36;100164.81;7400577;19;20498;-68
2023/12/31 10:18:28;;;;;;;5.28;2.85;;;;;;;6.94;95.99;100162.16;7400900;19;20022;-68
2023/12/31 10:20:57;;;;;;;8.32;3.70;;;;;;;6.99;95.99;100159.50;7400357;19;20430;-68
2023/12/31 10:23:29;;;;;;;4.53;2.60;;;;;;;7.02;92.94;100146.41;7399561;19;20015;-68
2023/12/31 10:26:00;;;;;;;5.95;2.90;;;;;;;7.07;95.80;100141.09;7400620;19;20431;-68
2023/12/31 10:28:30;;;;;;;6.30;2.47;;;;;;;7.09;94.50;100115.84;7400376;19;20027;-68
2023/12/31 10:30:58;;;;;;;5.38;3.20;;;;;;;7.12;93.49;100102.75;7400844;19;20010;-68
2023/12/31 10:33:31;;;;;;;3.95;2.50;;;;;;;7.14;93.29;100106.19;7397622;19;20078;-68
2023/12/31 10:36:05;;;;;;;3.72;2.97;;;;;;;7.19;91.18;100104.38;7398934;19;20018;-68
2023/12/31 10:38:49;;;;;;;3.38;2.47;;;;;;;7.21;90.40;100092.16;7398261;19;20021;-68
2023/12/31 10:41:21;;;;;;;6.57;3.00;;;;;;;7.24;93.29;100088.63;7400511;19;20074;-67
2023/12/31 10:43:50;;;;;;;3.08;2.30;;;;;;;7.26;91.56;100082.47;7399232;19;20066;-68
2023/12/31 10:46:20;;;;;;;3.83;2.28;;;;;;;7.28;91.90;100082.44;7400296;19;20018;-68
2023/12/31 10:48:51;;;;;;;3.95;2.08;;;;;;;7.30;91.70;100080.69;7399641;19;20015;-69
2023/12/31 10:51:26;;;;;;;6.57;2.75;;;;;;;7.32;91.13;100068.47;7399415;19;20017;-68
2023/12/31 10:54:00;;;;;;;4.15;2.05;;;;;;;7.34;90.30;100059.72;7398710;19;20011;-68
2023/12/31 10:56:29;;;;;;;4.35;2.40;;;;;;;7.39;91.63;100056.16;7400493;19;20086;-68
2023/12/31 10:58:58;;;;;;;4.82;2.30;;;;;;;7.41;91.29;100065.69;7399392;19;20015;-68
2023/12/31 11:01:27;;;;;;;3.92;2.38;;;;;;;7.44;92.11;100063.03;7399524;19;20014;-68
2023/12/31 11:03:57;;;;;;;3.97;2.63;;;;;;;7.47;91.59;100067.31;7399210;19;20010;-68
2023/12/31 11:06:26;;;;;;;3.55;2.03;;;;;;;7.50;90.72;100077.69;7399194;19;20023;-68
2023/12/31 11:08:57;;;;;;;4.25;2.47;;;;;;;7.55;91.97;100081.06;7398625;19;20018;-68
2023/12/31 11:11:26;;;;;;;6.18;2.50;;;;;;;7.57;91.38;100089.75;7398608;19;20070;-68
2023/12/31 11:14:01;;;;;;;4.85;3.13;;;;;;;7.60;90.52;100073.16;7397935;19;20014;-68
2023/12/31 11:16:44;;;;;;;7.30;4.30;;;;;;;7.63;90.71;100080.91;7399365;19;20027;-68
2023/12/31 11:19:37;;;;;;;5.88;3.13;;;;;;;7.67;89.23;100079.94;7398956;19;20014;-68
2023/12/31 11:22:24;;;;;;;6.80;3.50;;;;;;;7.69;91.52;100072.09;7398995;19;20018;-68
2023/12/31 11:24:57;;;;;;;6.40;3.22;;;;;;;7.75;91.47;100072.81;7396553;19;20014;-68
2023/12/31 11:27:29;;;;;;;4.75;2.30;;;;;;;7.80;91.04;100065.75;7398652;19;20049;-68
2023/12/31 11:29:58;;;;;;;5.18;2.75;;;;;;;7.83;91.81;100060.47;7398751;19;20031;-68
2023/12/31 11:32:28;;;;;;;3.72;2.40;;;;;;;7.88;92.59;100049.91;7398133;19;20031;-68
2023/12/31 11:34:58;;;;;;;6.85;2.53;;;;;;;7.92;90.07;100048.97;7396166;19;20471;-68
2023/12/31 11:37:26;;;;;;;4.57;2.25;;;;;;;7.95;89.72;100035.84;7396294;19;20014;-68